sensor_id;sensor_type;location;lat;lon;timestamp;pressure;altitude;pressure_sealevel;temperature;humidity
73415;BME280;61633;53.742;-2.990;2022-07-23T00:02:18;101880.49;;;16.84;51.34
73415;BME280;61633;53.742;-2.990;2022-07-23T00:04:43;101876.94;;;17.41;49.71
73415;BME280;61633;53.742;-2.990;2022-07-23T00:07:09;101876.79;;;16.84;49.80
73415;BME280;61633;53.742;-2.990;2022-07-23T00:09:35;101875.10;;;17.30;48.50
73415;BME280;61633;53.742;-2.990;2022-07-23T00:12:00;101875.19;;;17.39;48.33
73415;BME280;61633;53.742;-2.990;2022-07-23T00:14:26;101874.42;;;17.10;49.58
73415;BME280;61633;53.742;-2.990;2022-07-23T00:16:51;101877.73;;;16.65;50.43
73415;BME280;61633;53.742;-2.990;2022-07-23T00:19:16;101876.77;;;17.01;50.24
73415;BME280;61633;53.742;-2.990;2022-07-23T00:21:42;101876.81;;;17.04;50.00
73415;BME280;61633;53.742;-2.990;2022-07-23T00:24:08;101876.90;;;17.11;49.35
73415;BME280;61633;53.742;-2.990;2022-07-23T00:26:33;101879.25;;;17.42;48.53
73415;BME280;61633;53.742;-2.990;2022-07-23T00:28:59;101876.52;;;16.71;49.53
73415;BME280;61633;53.742;-2.990;2022-07-23T00:31:24;101880.84;;;17.15;49.86
73415;BME280;61633;53.742;-2.990;2022-07-23T00:33:50;101880.68;;;17.30;48.95
73415;BME280;61633;53.742;-2.990;2022-07-23T00:36:15;101872.93;;;17.84;49.06
73415;BME280;61633;53.742;-2.990;2022-07-23T00:38:41;101874.21;;;17.22;48.85
73415;BME280;61633;53.742;-2.990;2022-07-23T00:41:06;101870.83;;;17.56;47.58
73415;BME280;61633;53.742;-2.990;2022-07-23T00:43:32;101870.88;;;16.88;49.10
73415;BME280;61633;53.742;-2.990;2022-07-23T00:45:57;101872.65;;;17.29;48.90
73415;BME280;61633;53.742;-2.990;2022-07-23T00:48:22;101871.53;;;17.03;48.95
73415;BME280;61633;53.742;-2.990;2022-07-23T00:50:49;101872.34;;;17.07;48.97
73415;BME280;61633;53.742;-2.990;2022-07-23T00:53:13;101868.45;;;17.17;47.91
73415;BME280;61633;53.742;-2.990;2022-07-23T00:55:39;101866.83;;;17.36;49.57
73415;BME280;61633;53.742;-2.990;2022-07-23T00:58:05;101867.74;;;17.53;48.02
73415;BME280;61633;53.742;-2.990;2022-07-23T01:00:30;101864.74;;;17.51;48.16
73415;BME280;61633;53.742;-2.990;2022-07-23T01:02:55;101863.49;;;17.38;49.28
73415;BME280;61633;53.742;-2.990;2022-07-23T01:05:21;101859.92;;;16.96;49.22
73415;BME280;61633;53.742;-2.990;2022-07-23T01:07:47;101855.99;;;17.23;49.09
73415;BME280;61633;53.742;-2.990;2022-07-23T01:10:12;101855.87;;;16.92;48.88
73415;BME280;61633;53.742;-2.990;2022-07-23T01:12:38;101858.65;;;17.33;49.17
73415;BME280;61633;53.742;-2.990;2022-07-23T01:15:05;101856.43;;;17.20;48.99
73415;BME280;61633;53.742;-2.990;2022-07-23T01:17:29;101854.76;;;17.01;48.64
73415;BME280;61633;53.742;-2.990;2022-07-23T01:19:54;101855.25;;;17.07;49.28
73415;BME280;61633;53.742;-2.990;2022-07-23T01:22:20;101856.27;;;17.05;49.66
73415;BME280;61633;53.742;-2.990;2022-07-23T01:24:46;101853.94;;;17.02;48.70
73415;BME280;61633;53.742;-2.990;2022-07-23T01:27:10;101853.08;;;16.83;48.62
73415;BME280;61633;53.742;-2.990;2022-07-23T01:29:36;101851.77;;;17.08;48.05
73415;BME280;61633;53.742;-2.990;2022-07-23T01:32:02;101851.87;;;17.19;48.35
73415;BME280;61633;53.742;-2.990;2022-07-23T01:34:27;101853.27;;;17.54;48.37
73415;BME280;61633;53.742;-2.990;2022-07-23T01:36:53;101852.03;;;16.90;49.13
73415;BME280;61633;53.742;-2.990;2022-07-23T01:39:18;101849.60;;;16.82;49.11
73415;BME280;61633;53.742;-2.990;2022-07-23T01:41:43;101851.61;;;17.42;48.99
73415;BME280;61633;53.742;-2.990;2022-07-23T01:44:09;101853.38;;;17.09;47.89
73415;BME280;61633;53.742;-2.990;2022-07-23T01:46:34;101849.65;;;17.27;48.18
73415;BME280;61633;53.742;-2.990;2022-07-23T01:49:00;101848.59;;;17.21;48.49
73415;BME280;61633;53.742;-2.990;2022-07-23T01:51:26;101847.72;;;17.03;48.93
73415;BME280;61633;53.742;-2.990;2022-07-23T01:53:51;101845.16;;;17.05;48.99
73415;BME280;61633;53.742;-2.990;2022-07-23T01:56:17;101838.48;;;16.93;49.36
73415;BME280;61633;53.742;-2.990;2022-07-23T01:58:42;101837.27;;;17.31;49.39
73415;BME280;61633;53.742;-2.990;2022-07-23T02:01:09;101836.13;;;17.13;50.34
73415;BME280;61633;53.742;-2.990;2022-07-23T02:03:33;101834.61;;;16.97;49.33
73415;BME280;61633;53.742;-2.990;2022-07-23T02:05:59;101830.31;;;17.14;48.37
73415;BME280;61633;53.742;-2.990;2022-07-23T02:08:25;101828.54;;;17.21;48.88
73415;BME280;61633;53.742;-2.990;2022-07-23T02:10:50;101831.15;;;16.77;50.32
73415;BME280;61633;53.742;-2.990;2022-07-23T02:13:16;101830.85;;;16.61;50.26
73415;BME280;61633;53.742;-2.990;2022-07-23T02:15:41;101834.34;;;16.06;50.99
73415;BME280;61633;53.742;-2.990;2022-07-23T02:18:07;101834.59;;;15.34;52.73
73415;BME280;61633;53.742;-2.990;2022-07-23T02:20:32;101835.17;;;16.03;52.10
73415;BME280;61633;53.742;-2.990;2022-07-23T02:22:58;101830.76;;;15.66;52.09
73415;BME280;61633;53.742;-2.990;2022-07-23T02:25:24;101829.83;;;15.78;51.82
73415;BME280;61633;53.742;-2.990;2022-07-23T02:27:49;101825.68;;;16.13;51.16
73415;BME280;61633;53.742;-2.990;2022-07-23T02:30:15;101821.73;;;15.29;52.56
73415;BME280;61633;53.742;-2.990;2022-07-23T02:32:41;101815.06;;;17.03;50.96
73415;BME280;61633;53.742;-2.990;2022-07-23T02:35:07;101812.80;;;14.63;53.41
73415;BME280;61633;53.742;-2.990;2022-07-23T02:37:31;101812.72;;;15.18;53.34
73415;BME280;61633;53.742;-2.990;2022-07-23T02:39:57;101814.21;;;15.31;53.13
73415;BME280;61633;53.742;-2.990;2022-07-23T02:42:23;101813.77;;;15.84;52.62
73415;BME280;61633;53.742;-2.990;2022-07-23T02:44:48;101813.49;;;15.69;52.12
73415;BME280;61633;53.742;-2.990;2022-07-23T02:47:14;101812.10;;;15.91;52.16
73415;BME280;61633;53.742;-2.990;2022-07-23T02:49:39;101818.62;;;16.19;50.79
73415;BME280;61633;53.742;-2.990;2022-07-23T02:52:05;101816.44;;;15.82;50.71
73415;BME280;61633;53.742;-2.990;2022-07-23T02:54:30;101808.50;;;15.68;51.25
73415;BME280;61633;53.742;-2.990;2022-07-23T02:56:56;101811.24;;;15.68;52.02
73415;BME280;61633;53.742;-2.990;2022-07-23T02:59:22;101815.28;;;15.87;51.23
73415;BME280;61633;53.742;-2.990;2022-07-23T03:01:48;101810.91;;;15.47;51.51
73415;BME280;61633;53.742;-2.990;2022-07-23T03:04:13;101812.22;;;15.85;51.20
73415;BME280;61633;53.742;-2.990;2022-07-23T03:06:38;101810.31;;;15.89;51.20
73415;BME280;61633;53.742;-2.990;2022-07-23T03:09:06;101808.97;;;16.17;51.43
73415;BME280;61633;53.742;-2.990;2022-07-23T03:11:30;101810.26;;;16.80;49.94
73415;BME280;61633;53.742;-2.990;2022-07-23T03:13:55;101816.81;;;15.57;51.38
73415;BME280;61633;53.742;-2.990;2022-07-23T03:16:21;101817.53;;;15.82;51.10
73415;BME280;61633;53.742;-2.990;2022-07-23T03:18:46;101819.93;;;16.00;51.17
73415;BME280;61633;53.742;-2.990;2022-07-23T03:21:12;101822.02;;;15.24;52.66
73415;BME280;61633;53.742;-2.990;2022-07-23T03:23:38;101825.55;;;16.32;49.90
73415;BME280;61633;53.742;-2.990;2022-07-23T03:26:03;101831.08;;;14.78;52.99
73415;BME280;61633;53.742;-2.990;2022-07-23T03:28:29;101828.76;;;15.86;51.86
73415;BME280;61633;53.742;-2.990;2022-07-23T03:30:54;101822.96;;;15.57;52.42
73415;BME280;61633;53.742;-2.990;2022-07-23T03:33:21;101821.05;;;14.96;52.21
73415;BME280;61633;53.742;-2.990;2022-07-23T03:35:47;101814.98;;;15.48;52.61
73415;BME280;61633;53.742;-2.990;2022-07-23T03:38:11;101812.42;;;15.94;51.16
73415;BME280;61633;53.742;-2.990;2022-07-23T03:40:37;101814.08;;;14.13;55.24
73415;BME280;61633;53.742;-2.990;2022-07-23T03:43:02;101801.05;;;15.41;52.66
73415;BME280;61633;53.742;-2.990;2022-07-23T03:45:28;101796.68;;;15.18;53.12
73415;BME280;61633;53.742;-2.990;2022-07-23T03:47:53;101793.51;;;15.41;52.94
73415;BME280;61633;53.742;-2.990;2022-07-23T03:50:20;101792.77;;;14.95;53.56
73415;BME280;61633;53.742;-2.990;2022-07-23T03:52:44;101793.18;;;15.22;52.98
73415;BME280;61633;53.742;-2.990;2022-07-23T03:55:10;101792.89;;;15.91;52.01
73415;BME280;61633;53.742;-2.990;2022-07-23T03:57:35;101792.64;;;15.48;53.07
73415;BME280;61633;53.742;-2.990;2022-07-23T04:00:00;101796.65;;;14.67;55.07
73415;BME280;61633;53.742;-2.990;2022-07-23T04:02:26;101797.16;;;15.02;54.44
73415;BME280;61633;53.742;-2.990;2022-07-23T04:04:51;101798.44;;;14.93;54.72
73415;BME280;61633;53.742;-2.990;2022-07-23T04:07:16;101795.75;;;14.53;55.77
73415;BME280;61633;53.742;-2.990;2022-07-23T04:09:42;101792.14;;;15.22;54.66
73415;BME280;61633;53.742;-2.990;2022-07-23T04:12:08;101787.76;;;15.02;55.15
73415;BME280;61633;53.742;-2.990;2022-07-23T04:14:33;101780.79;;;15.59;53.93
73415;BME280;61633;53.742;-2.990;2022-07-23T04:16:57;101778.50;;;14.61;55.73
73415;BME280;61633;53.742;-2.990;2022-07-23T04:19:23;101776.55;;;15.48;53.82
73415;BME280;61633;53.742;-2.990;2022-07-23T04:21:48;101776.66;;;15.72;53.69
73415;BME280;61633;53.742;-2.990;2022-07-23T04:24:13;101777.62;;;15.91;53.04
73415;BME280;61633;53.742;-2.990;2022-07-23T04:26:39;101780.42;;;15.50;53.66
73415;BME280;61633;53.742;-2.990;2022-07-23T04:29:05;101778.57;;;15.51;52.50
73415;BME280;61633;53.742;-2.990;2022-07-23T04:31:30;101779.60;;;15.90;52.78
73415;BME280;61633;53.742;-2.990;2022-07-23T04:33:55;101782.81;;;15.84;52.96
73415;BME280;61633;53.742;-2.990;2022-07-23T04:36:21;101783.32;;;16.07;51.94
73415;BME280;61633;53.742;-2.990;2022-07-23T04:38:47;101778.67;;;16.02;51.65
73415;BME280;61633;53.742;-2.990;2022-07-23T04:41:11;101781.08;;;15.58;52.47
73415;BME280;61633;53.742;-2.990;2022-07-23T04:43:37;101780.85;;;15.82;52.39
73415;BME280;61633;53.742;-2.990;2022-07-23T04:46:02;101774.95;;;16.62;51.02
73415;BME280;61633;53.742;-2.990;2022-07-23T04:48:28;101776.14;;;15.91;52.58
73415;BME280;61633;53.742;-2.990;2022-07-23T04:50:54;101775.40;;;14.98;54.35
73415;BME280;61633;53.742;-2.990;2022-07-23T04:53:19;101774.05;;;15.95;52.02
73415;BME280;61633;53.742;-2.990;2022-07-23T04:55:45;101774.31;;;14.68;55.33
73415;BME280;61633;53.742;-2.990;2022-07-23T04:58:10;101774.13;;;15.38;53.31
73415;BME280;61633;53.742;-2.990;2022-07-23T05:00:36;101773.68;;;15.45;53.81
73415;BME280;61633;53.742;-2.990;2022-07-23T05:03:01;101771.38;;;14.89;55.18
73415;BME280;61633;53.742;-2.990;2022-07-23T05:05:27;101769.95;;;14.26;55.59
73415;BME280;61633;53.742;-2.990;2022-07-23T05:07:52;101773.23;;;14.82;55.54
73415;BME280;61633;53.742;-2.990;2022-07-23T05:10:18;101770.62;;;15.20;54.82
73415;BME280;61633;53.742;-2.990;2022-07-23T05:12:43;101770.02;;;15.08;55.10
73415;BME280;61633;53.742;-2.990;2022-07-23T05:15:09;101770.71;;;14.64;56.26
73415;BME280;61633;53.742;-2.990;2022-07-23T05:17:35;101771.54;;;15.43;54.30
73415;BME280;61633;53.742;-2.990;2022-07-23T05:19:59;101776.84;;;15.54;54.58
73415;BME280;61633;53.742;-2.990;2022-07-23T05:22:25;101774.23;;;15.49;55.23
73415;BME280;61633;53.742;-2.990;2022-07-23T05:24:50;101769.83;;;15.48;54.96
73415;BME280;61633;53.742;-2.990;2022-07-23T05:27:16;101767.63;;;15.77;53.64
73415;BME280;61633;53.742;-2.990;2022-07-23T05:29:41;101770.67;;;15.67;54.63
73415;BME280;61633;53.742;-2.990;2022-07-23T05:32:06;101773.64;;;16.29;53.59
73415;BME280;61633;53.742;-2.990;2022-07-23T05:34:32;101773.90;;;15.77;54.28
73415;BME280;61633;53.742;-2.990;2022-07-23T05:36:58;101777.74;;;14.63;56.99
73415;BME280;61633;53.742;-2.990;2022-07-23T05:39:23;101777.08;;;14.29;57.13
73415;BME280;61633;53.742;-2.990;2022-07-23T05:41:48;101775.79;;;14.57;56.71
73415;BME280;61633;53.742;-2.990;2022-07-23T05:44:15;101775.07;;;14.90;56.21
73415;BME280;61633;53.742;-2.990;2022-07-23T05:46:40;101770.26;;;15.20;56.11
73415;BME280;61633;53.742;-2.990;2022-07-23T05:49:05;101774.03;;;15.26;55.63
73415;BME280;61633;53.742;-2.990;2022-07-23T05:51:30;101775.15;;;14.34;56.77
73415;BME280;61633;53.742;-2.990;2022-07-23T05:53:56;101774.79;;;15.58;54.95
73415;BME280;61633;53.742;-2.990;2022-07-23T05:56:22;101772.18;;;15.80;56.01
73415;BME280;61633;53.742;-2.990;2022-07-23T05:58:47;101774.84;;;14.78;57.03
73415;BME280;61633;53.742;-2.990;2022-07-23T06:01:12;101775.88;;;14.83;57.45
73415;BME280;61633;53.742;-2.990;2022-07-23T06:03:38;101770.42;;;15.16;57.72
73415;BME280;61633;53.742;-2.990;2022-07-23T06:06:04;101766.61;;;14.48;59.08
73415;BME280;61633;53.742;-2.990;2022-07-23T06:08:28;101770.62;;;14.42;58.55
73415;BME280;61633;53.742;-2.990;2022-07-23T06:10:53;101776.27;;;13.60;60.83
73415;BME280;61633;53.742;-2.990;2022-07-23T06:13:19;101771.47;;;14.95;58.12
73415;BME280;61633;53.742;-2.990;2022-07-23T06:15:44;101766.98;;;14.37;60.03
73415;BME280;61633;53.742;-2.990;2022-07-23T06:18:09;101761.51;;;14.28;59.25
73415;BME280;61633;53.742;-2.990;2022-07-23T06:20:35;101755.81;;;15.17;56.80
73415;BME280;61633;53.742;-2.990;2022-07-23T06:23:01;101758.27;;;15.06;57.88
73415;BME280;61633;53.742;-2.990;2022-07-23T06:25:27;101758.82;;;15.22;57.27
73415;BME280;61633;53.742;-2.990;2022-07-23T06:27:52;101757.57;;;14.22;59.54
73415;BME280;61633;53.742;-2.990;2022-07-23T06:30:18;101755.17;;;15.05;57.80
73415;BME280;61633;53.742;-2.990;2022-07-23T06:32:45;101757.39;;;15.53;56.94
73415;BME280;61633;53.742;-2.990;2022-07-23T06:35:09;101752.90;;;15.40;56.88
73415;BME280;61633;53.742;-2.990;2022-07-23T06:37:35;101747.24;;;16.65;55.32
73415;BME280;61633;53.742;-2.990;2022-07-23T06:40:00;101747.49;;;15.93;55.76
73415;BME280;61633;53.742;-2.990;2022-07-23T06:42:26;101746.73;;;16.30;55.33
73415;BME280;61633;53.742;-2.990;2022-07-23T06:44:51;101753.24;;;16.03;55.95
73415;BME280;61633;53.742;-2.990;2022-07-23T06:47:17;101749.39;;;16.55;54.99
73415;BME280;61633;53.742;-2.990;2022-07-23T06:49:43;101746.13;;;16.15;55.09
73415;BME280;61633;53.742;-2.990;2022-07-23T06:52:09;101739.27;;;16.03;55.07
73415;BME280;61633;53.742;-2.990;2022-07-23T06:54:34;101737.72;;;16.43;54.41
73415;BME280;61633;53.742;-2.990;2022-07-23T06:56:59;101736.10;;;16.28;54.22
73415;BME280;61633;53.742;-2.990;2022-07-23T06:59:25;101738.39;;;15.78;55.67
73415;BME280;61633;53.742;-2.990;2022-07-23T07:01:50;101735.11;;;16.87;53.99
73415;BME280;61633;53.742;-2.990;2022-07-23T07:04:15;101734.24;;;15.72;55.54
73415;BME280;61633;53.742;-2.990;2022-07-23T07:06:41;101734.51;;;16.06;55.60
73415;BME280;61633;53.742;-2.990;2022-07-23T07:09:06;101734.60;;;16.20;55.28
73415;BME280;61633;53.742;-2.990;2022-07-23T07:11:31;101733.91;;;15.80;55.91
73415;BME280;61633;53.742;-2.990;2022-07-23T07:13:57;101733.24;;;16.02;56.07
73415;BME280;61633;53.742;-2.990;2022-07-23T07:16:22;101730.43;;;16.88;54.68
73415;BME280;61633;53.742;-2.990;2022-07-23T07:18:49;101723.70;;;16.71;54.05
73415;BME280;61633;53.742;-2.990;2022-07-23T07:21:13;101728.02;;;17.03;54.52
73415;BME280;61633;53.742;-2.990;2022-07-23T07:23:39;101732.00;;;16.24;55.64
73415;BME280;61633;53.742;-2.990;2022-07-23T07:26:05;101729.40;;;16.50;54.16
73415;BME280;61633;53.742;-2.990;2022-07-23T07:28:29;101724.08;;;16.95;53.49
73415;BME280;61633;53.742;-2.990;2022-07-23T07:30:55;101730.40;;;16.36;54.80
73415;BME280;61633;53.742;-2.990;2022-07-23T07:33:21;101732.29;;;16.66;53.49
73415;BME280;61633;53.742;-2.990;2022-07-23T07:35:46;101736.39;;;16.38;54.46
73415;BME280;61633;53.742;-2.990;2022-07-23T07:38:11;101740.36;;;14.94;58.55
73415;BME280;61633;53.742;-2.990;2022-07-23T07:40:37;101737.40;;;15.07;57.22
73415;BME280;61633;53.742;-2.990;2022-07-23T07:43:02;101733.08;;;16.03;55.13
73415;BME280;61633;53.742;-2.990;2022-07-23T07:45:28;101734.36;;;16.11;54.39
73415;BME280;61633;53.742;-2.990;2022-07-23T07:47:53;101733.03;;;16.37;54.69
73415;BME280;61633;53.742;-2.990;2022-07-23T07:50:20;101735.81;;;16.52;54.57
73415;BME280;61633;53.742;-2.990;2022-07-23T07:52:44;101729.76;;;16.63;55.08
73415;BME280;61633;53.742;-2.990;2022-07-23T07:55:10;101732.05;;;16.12;55.25
73415;BME280;61633;53.742;-2.990;2022-07-23T07:57:36;101729.91;;;15.03;56.35
73415;BME280;61633;53.742;-2.990;2022-07-23T08:00:00;101724.50;;;16.22;55.62
73415;BME280;61633;53.742;-2.990;2022-07-23T08:02:25;101728.99;;;15.55;56.84
73415;BME280;61633;53.742;-2.990;2022-07-23T08:04:51;101723.62;;;16.76;54.44
73415;BME280;61633;53.742;-2.990;2022-07-23T08:07:17;101720.40;;;16.20;54.85
73415;BME280;61633;53.742;-2.990;2022-07-23T08:09:42;101714.76;;;17.46;52.40
73415;BME280;61633;53.742;-2.990;2022-07-23T08:12:08;101713.20;;;16.86;53.08
73415;BME280;61633;53.742;-2.990;2022-07-23T08:14:33;101713.53;;;15.94;54.60
73415;BME280;61633;53.742;-2.990;2022-07-23T08:16:58;101721.59;;;15.86;56.59
73415;BME280;61633;53.742;-2.990;2022-07-23T08:19:23;101716.98;;;16.03;55.86
73415;BME280;61633;53.742;-2.990;2022-07-23T08:21:49;101726.68;;;16.09;56.11
73415;BME280;61633;53.742;-2.990;2022-07-23T08:24:14;101726.98;;;16.82;54.09
73415;BME280;61633;53.742;-2.990;2022-07-23T08:26:40;101732.80;;;16.64;54.69
73415;BME280;61633;53.742;-2.990;2022-07-23T08:29:06;101730.25;;;16.75;54.82
73415;BME280;61633;53.742;-2.990;2022-07-23T08:31:30;101727.43;;;16.30;56.27
73415;BME280;61633;53.742;-2.990;2022-07-23T08:33:56;101723.41;;;16.36;56.29
73415;BME280;61633;53.742;-2.990;2022-07-23T08:36:21;101723.95;;;15.31;59.10
73415;BME280;61633;53.742;-2.990;2022-07-23T08:38:47;101720.97;;;15.54;58.65
73415;BME280;61633;53.742;-2.990;2022-07-23T08:41:12;101718.67;;;16.19;57.62
73415;BME280;61633;53.742;-2.990;2022-07-23T08:43:38;101720.07;;;16.62;55.91
73415;BME280;61633;53.742;-2.990;2022-07-23T08:46:05;101724.15;;;15.84;57.48
73415;BME280;61633;53.742;-2.990;2022-07-23T08:48:30;101723.08;;;15.79;57.71
73415;BME280;61633;53.742;-2.990;2022-07-23T08:50:57;101718.86;;;16.04;57.72
73415;BME280;61633;53.742;-2.990;2022-07-23T08:53:23;101717.63;;;16.67;56.59
73415;BME280;61633;53.742;-2.990;2022-07-23T08:55:48;101712.22;;;16.16;57.56
73415;BME280;61633;53.742;-2.990;2022-07-23T08:58:12;101709.65;;;16.69;56.66
73415;BME280;61633;53.742;-2.990;2022-07-23T09:00:38;101706.58;;;16.61;56.57
73415;BME280;61633;53.742;-2.990;2022-07-23T09:03:02;101704.41;;;16.40;56.03
73415;BME280;61633;53.742;-2.990;2022-07-23T09:05:28;101704.27;;;16.01;58.05
73415;BME280;61633;53.742;-2.990;2022-07-23T09:08:05;101698.81;;;16.56;57.09
73415;BME280;61633;53.742;-2.990;2022-07-23T09:10:20;101699.49;;;15.84;57.66
73415;BME280;61633;53.742;-2.990;2022-07-23T09:12:45;101702.66;;;16.22;57.47
73415;BME280;61633;53.742;-2.990;2022-07-23T09:15:11;101705.94;;;14.92;60.30
73415;BME280;61633;53.742;-2.990;2022-07-23T09:17:38;101703.84;;;15.69;59.62
73415;BME280;61633;53.742;-2.990;2022-07-23T09:20:10;101703.74;;;15.09;61.93
73415;BME280;61633;53.742;-2.990;2022-07-23T09:22:28;101701.97;;;14.20;63.79
73415;BME280;61633;53.742;-2.990;2022-07-23T09:25:03;101705.61;;;14.82;63.23
73415;BME280;61633;53.742;-2.990;2022-07-23T09:27:18;101708.44;;;15.64;62.49
73415;BME280;61633;53.742;-2.990;2022-07-23T09:32:13;101705.99;;;15.03;63.10
73415;BME280;61633;53.742;-2.990;2022-07-23T09:34:36;101703.43;;;14.69;63.28
73415;BME280;61633;53.742;-2.990;2022-07-23T09:37:09;101707.94;;;15.55;62.31
73415;BME280;61633;53.742;-2.990;2022-07-23T09:39:27;101710.55;;;15.80;62.08
73415;BME280;61633;53.742;-2.990;2022-07-23T09:41:51;101709.13;;;15.70;62.24
73415;BME280;61633;53.742;-2.990;2022-07-23T09:44:18;101702.48;;;16.38;60.51
73415;BME280;61633;53.742;-2.990;2022-07-23T09:46:43;101705.87;;;15.87;61.00
73415;BME280;61633;53.742;-2.990;2022-07-23T09:49:15;101701.45;;;16.17;60.17
73415;BME280;61633;53.742;-2.990;2022-07-23T09:51:45;101701.78;;;15.82;60.27
73415;BME280;61633;53.742;-2.990;2022-07-23T09:54:05;101708.38;;;15.89;61.33
73415;BME280;61633;53.742;-2.990;2022-07-23T09:56:27;101705.59;;;15.92;61.65
73415;BME280;61633;53.742;-2.990;2022-07-23T09:58:50;101707.51;;;15.12;63.31
73415;BME280;61633;53.742;-2.990;2022-07-23T10:01:16;101703.20;;;15.32;62.23
73415;BME280;61633;53.742;-2.990;2022-07-23T10:03:42;101701.15;;;15.91;60.80
73415;BME280;61633;53.742;-2.990;2022-07-23T10:06:08;101699.56;;;15.26;62.34
73415;BME280;61633;53.742;-2.990;2022-07-23T10:08:32;101701.49;;;16.12;61.29
73415;BME280;61633;53.742;-2.990;2022-07-23T10:10:59;101701.45;;;15.09;61.97
73415;BME280;61633;53.742;-2.990;2022-07-23T10:13:24;101699.64;;;15.20;63.16
73415;BME280;61633;53.742;-2.990;2022-07-23T10:15:50;101695.05;;;16.01;61.05
73415;BME280;61633;53.742;-2.990;2022-07-23T10:18:15;101694.23;;;15.92;60.71
73415;BME280;61633;53.742;-2.990;2022-07-23T10:20:41;101697.17;;;16.16;60.71
73415;BME280;61633;53.742;-2.990;2022-07-23T10:23:12;101694.22;;;16.23;60.00
73415;BME280;61633;53.742;-2.990;2022-07-23T10:25:36;101698.55;;;15.68;61.22
73415;BME280;61633;53.742;-2.990;2022-07-23T10:28:06;101697.54;;;15.91;61.12
73415;BME280;61633;53.742;-2.990;2022-07-23T10:30:30;101695.02;;;16.17;60.77
73415;BME280;61633;53.742;-2.990;2022-07-23T10:32:59;101696.76;;;15.45;60.44
73415;BME280;61633;53.742;-2.990;2022-07-23T10:35:21;101697.89;;;15.25;61.61
73415;BME280;61633;53.742;-2.990;2022-07-23T10:37:41;101689.76;;;15.55;60.01
73415;BME280;61633;53.742;-2.990;2022-07-23T10:40:12;101689.54;;;14.93;62.50
73415;BME280;61633;53.742;-2.990;2022-07-23T10:42:34;101693.67;;;15.60;61.38
73415;BME280;61633;53.742;-2.990;2022-07-23T10:44:55;101693.56;;;14.97;62.72
73415;BME280;61633;53.742;-2.990;2022-07-23T10:47:27;101694.59;;;15.40;62.58
73415;BME280;61633;53.742;-2.990;2022-07-23T10:49:46;101691.01;;;15.48;62.62
73415;BME280;61633;53.742;-2.990;2022-07-23T10:52:19;101682.99;;;14.97;64.11
73415;BME280;61633;53.742;-2.990;2022-07-23T10:54:37;101679.94;;;14.76;65.29
73415;BME280;61633;53.742;-2.990;2022-07-23T10:57:07;101682.00;;;14.92;66.12
73415;BME280;61633;53.742;-2.990;2022-07-23T10:59:28;101681.20;;;14.73;65.76
73415;BME280;61633;53.742;-2.990;2022-07-23T11:01:52;101678.11;;;14.76;67.02
73415;BME280;61633;53.742;-2.990;2022-07-23T11:04:18;101674.11;;;15.28;66.71
73415;BME280;61633;53.742;-2.990;2022-07-23T11:09:24;101673.59;;;14.93;67.03
73415;BME280;61633;53.742;-2.990;2022-07-23T11:11:34;101673.08;;;14.65;66.56
73415;BME280;61633;53.742;-2.990;2022-07-23T11:14:00;101672.75;;;15.37;66.22
73415;BME280;61633;53.742;-2.990;2022-07-23T11:16:26;101670.68;;;15.06;67.58
73415;BME280;61633;53.742;-2.990;2022-07-23T11:18:57;101670.93;;;14.72;69.37
73415;BME280;61633;53.742;-2.990;2022-07-23T11:26:09;101668.52;;;15.25;67.06
73415;BME280;61633;53.742;-2.990;2022-07-23T11:28:35;101662.31;;;15.02;67.77
73415;BME280;61633;53.742;-2.990;2022-07-23T11:31:10;101658.27;;;15.21;66.90
73415;BME280;61633;53.742;-2.990;2022-07-23T11:33:25;101660.32;;;14.56;69.19
73415;BME280;61633;53.742;-2.990;2022-07-23T11:36:03;101656.89;;;15.47;67.16
73415;BME280;61633;53.742;-2.990;2022-07-23T11:38:18;101655.42;;;15.10;69.00
73415;BME280;61633;53.742;-2.990;2022-07-23T11:40:44;101655.86;;;14.37;70.95
73415;BME280;61633;53.742;-2.990;2022-07-23T11:43:09;101644.51;;;14.87;69.44
73415;BME280;61633;53.742;-2.990;2022-07-23T11:45:35;101643.97;;;15.22;69.77
73415;BME280;61633;53.742;-2.990;2022-07-23T11:47:59;101642.09;;;14.54;71.25
73415;BME280;61633;53.742;-2.990;2022-07-23T11:50:25;101642.30;;;14.78;70.62
73415;BME280;61633;53.742;-2.990;2022-07-23T11:52:50;101642.34;;;14.60;70.70
73415;BME280;61633;53.742;-2.990;2022-07-23T11:55:15;101638.12;;;14.64;69.50
73415;BME280;61633;53.742;-2.990;2022-07-23T11:57:41;101632.08;;;14.96;70.13
73415;BME280;61633;53.742;-2.990;2022-07-23T12:00:08;101634.05;;;15.55;69.09
73415;BME280;61633;53.742;-2.990;2022-07-23T12:02:32;101632.66;;;15.03;69.47
73415;BME280;61633;53.742;-2.990;2022-07-23T12:04:57;101628.06;;;14.79;68.94
73415;BME280;61633;53.742;-2.990;2022-07-23T12:07:26;101610.45;;;14.58;69.74
73415;BME280;61633;53.742;-2.990;2022-07-23T12:09:48;101606.39;;;14.10;71.81
73415;BME280;61633;53.742;-2.990;2022-07-23T12:12:13;101611.71;;;12.77;75.99
73415;BME280;61633;53.742;-2.990;2022-07-23T12:14:49;101611.76;;;12.90;75.83
73415;BME280;61633;53.742;-2.990;2022-07-23T12:17:09;101616.00;;;12.88;76.39
73415;BME280;61633;53.742;-2.990;2022-07-23T12:19:30;101615.28;;;13.24;75.14
73415;BME280;61633;53.742;-2.990;2022-07-23T12:21:56;101612.15;;;13.23;76.06
73415;BME280;61633;53.742;-2.990;2022-07-23T12:24:21;101601.44;;;14.01;74.61
73415;BME280;61633;53.742;-2.990;2022-07-23T12:29:11;101599.50;;;13.42;74.76
73415;BME280;61633;53.742;-2.990;2022-07-23T12:31:38;101597.83;;;13.77;73.82
73415;BME280;61633;53.742;-2.990;2022-07-23T12:34:14;101601.09;;;13.53;73.48
73415;BME280;61633;53.742;-2.990;2022-07-23T12:36:36;101600.99;;;14.17;72.39
73415;BME280;61633;53.742;-2.990;2022-07-23T12:38:54;101601.08;;;13.32;73.04
73415;BME280;61633;53.742;-2.990;2022-07-23T12:41:20;101600.11;;;14.05;72.46
73415;BME280;61633;53.742;-2.990;2022-07-23T12:43:46;101589.86;;;14.40;72.35